createdAt,value
2023-04-23T00:01:59.030Z,99748.97
2023-04-23T00:12:02.057Z,99740.03
2023-04-23T00:22:04.262Z,99744.97
2023-04-23T00:32:06.799Z,99735.31
2023-04-23T00:42:12.820Z,99731.22
2023-04-23T00:52:14.901Z,99730.41
2023-04-23T01:02:17.663Z,99725.38
2023-04-23T01:12:19.821Z,99723.25
2023-04-23T01:22:21.937Z,99741.44
2023-04-23T01:32:24.581Z,99726.88
2023-04-23T01:42:26.978Z,99739.34
2023-04-23T01:52:29.225Z,99730.88
2023-04-23T02:02:31.539Z,99726.53
2023-04-23T02:12:34.097Z,99733.09
2023-04-23T02:22:41.862Z,99729.47
2023-04-23T02:32:44.210Z,99726.41
2023-04-23T02:42:46.417Z,99714.22
2023-04-23T02:52:49.730Z,99714.22
2023-04-23T03:02:52.195Z,99725.66
2023-04-23T03:12:54.529Z,99711.56
2023-04-23T03:22:57.258Z,99713.91
2023-04-23T03:32:59.631Z,99710.03
2023-04-23T03:43:01.876Z,99702.03
2023-04-23T03:53:35.716Z,99698.78
2023-04-23T04:04:03.771Z,99685.50
2023-04-23T04:14:08.417Z,99679.75
2023-04-23T04:24:11.563Z,99689.84
2023-04-23T04:34:14.787Z,99659.22
2023-04-23T04:44:17.290Z,99656.13
2023-04-23T04:54:19.370Z,99661.69
2023-04-23T05:04:21.515Z,99664.03
2023-04-23T05:14:25.981Z,99657.13
2023-04-23T05:24:28.028Z,99665.81
2023-04-23T05:34:30.187Z,99682.34
2023-04-23T05:44:32.252Z,99673.78
2023-04-23T05:54:34.402Z,99663.47
2023-04-23T06:04:37.632Z,99665.97
2023-04-23T06:14:40.317Z,99658.53
2023-04-23T06:24:43.166Z,99657.63
2023-04-23T06:34:59.552Z,99654.16
2023-04-23T06:45:06.177Z,99657.47
2023-04-23T06:55:09.044Z,99652.19
2023-04-23T07:05:11.321Z,99639.91
2023-04-23T07:15:13.411Z,99637.97
2023-04-23T07:25:15.610Z,99638.59
2023-04-23T07:35:17.891Z,99642.09
2023-04-23T07:45:20.050Z,99628.34
2023-04-23T07:55:22.158Z,99614.13
2023-04-23T08:05:24.415Z,99618.81
2023-04-23T08:15:26.879Z,99598.78
2023-04-23T08:25:28.953Z,99596.34
2023-04-23T08:35:31.112Z,99582.25
2023-04-23T08:45:34.734Z,99578.53
2023-04-23T08:55:36.951Z,99579.22
2023-04-23T09:05:39.351Z,99577.09
2023-04-23T09:15:43.656Z,99574.22
2023-04-23T09:25:45.805Z,99561.41
2023-04-23T09:35:48.726Z,99544.72
2023-04-23T09:45:50.945Z,99538.75
2023-04-23T09:55:53.120Z,99532.38
2023-04-23T10:06:01.832Z,99539.28
2023-04-23T10:16:18.145Z,99531.13
2023-04-23T10:26:24.785Z,99521.97
2023-04-23T10:36:27.712Z,99527.91
2023-04-23T10:46:31.432Z,99504.88
2023-04-23T10:56:33.698Z,99489.69
2023-04-23T11:06:47.840Z,99483.03
2023-04-23T11:16:50.289Z,99465.16
2023-04-23T11:26:55.722Z,99468.69
2023-04-23T11:36:59.785Z,99454.06
2023-04-23T11:47:03.546Z,99438.59
2023-04-23T11:57:09.996Z,99412.78
2023-04-23T12:07:25.834Z,99397.59
2023-04-23T12:17:29.220Z,99398.41
2023-04-23T12:27:33.668Z,99379.59
2023-04-23T12:37:37.612Z,99375.94
2023-04-23T12:47:40.238Z,99369.31
2023-04-23T12:57:42.393Z,99351.13
2023-04-23T13:07:44.508Z,99335.16
2023-04-23T13:17:46.768Z,99320.91
2023-04-23T13:27:48.904Z,99304.25
2023-04-23T13:37:51.112Z,99285.94
2023-04-23T13:47:53.282Z,99256.69
2023-04-23T13:57:58.125Z,99251.00
2023-04-23T14:08:00.584Z,99241.22
2023-04-23T14:18:02.896Z,99229.28
2023-04-23T14:28:24.856Z,99217.66
2023-04-23T14:38:27.025Z,99199.28
2023-04-23T14:48:29.590Z,99191.22
2023-04-23T14:58:31.711Z,99165.19
2023-04-23T15:08:33.987Z,99149.38
2023-04-23T15:18:36.133Z,99158.28
2023-04-23T15:28:38.257Z,99154.13
2023-04-23T15:38:40.402Z,99180.34
2023-04-23T15:48:42.533Z,99173.34
2023-04-23T15:58:44.601Z,99169.38
2023-04-23T16:08:46.810Z,99163.44
2023-04-23T16:18:49.423Z,99178.94
2023-04-23T16:29:05.420Z,99151.25
2023-04-23T16:39:14.145Z,99132.94
2023-04-23T16:49:16.298Z,99125.44
2023-04-23T16:59:18.812Z,99131.09
2023-04-23T17:09:21.279Z,99119.97
2023-04-23T17:19:23.466Z,99100.84
2023-04-23T17:29:25.889Z,99095.47
2023-04-23T17:39:28.335Z,99130.72
2023-04-23T17:49:30.785Z,99129.59
2023-04-23T17:59:33.356Z,99084.19
2023-04-23T18:09:36.347Z,99063.16
2023-04-23T18:19:39.794Z,99063.56
2023-04-23T18:29:42.127Z,99036.19
2023-04-23T18:39:44.432Z,99038.78
2023-04-23T18:49:52.838Z,99033.44
2023-04-23T18:59:55.118Z,99016.91
2023-04-23T19:09:57.204Z,99009.78
2023-04-23T19:19:59.361Z,99012.63
2023-04-23T19:30:01.947Z,98995.44
2023-04-23T19:40:04.857Z,98981.44
2023-04-23T19:50:07.655Z,98979.31
2023-04-23T20:00:14.123Z,98969.88
2023-04-23T20:10:17.518Z,98983.84
2023-04-23T20:20:21.580Z,98996.34
2023-04-23T20:30:23.852Z,98996.66
2023-04-23T20:40:26.078Z,99020.50
2023-04-23T20:50:28.231Z,99007.13
2023-04-23T21:00:30.984Z,99009.56
2023-04-23T21:10:33.353Z,99010.72
2023-04-23T21:20:36.475Z,99004.91
2023-04-23T21:30:46.682Z,98995.78
2023-04-23T21:40:48.868Z,98983.53
2023-04-23T21:50:51.652Z,98981.63
2023-04-23T22:00:54.431Z,98993.34
2023-04-23T22:10:56.634Z,99003.16
2023-04-23T22:20:58.708Z,99008.81
2023-04-23T22:31:01.360Z,99006.63
2023-04-23T22:41:03.444Z,99019.03
2023-04-23T22:51:05.607Z,99010.63
2023-04-23T23:01:07.832Z,99022.00
2023-04-23T23:11:09.976Z,99020.50
2023-04-23T23:21:12.085Z,99016.75
2023-04-23T23:31:14.502Z,99008.91
2023-04-23T23:41:16.598Z,99004.19
2023-04-23T23:51:18.752Z,99001.91
